createdAt,value
2023-01-03T00:01:26.921Z,7.86
2023-01-03T00:03:56.179Z,7.92
2023-01-03T00:06:26.111Z,7.71
2023-01-03T00:08:55.050Z,7.82
2023-01-03T00:11:40.069Z,7.70
2023-01-03T00:14:08.297Z,7.66
2023-01-03T00:16:36.467Z,7.83
2023-01-03T00:19:07.935Z,7.65
2023-01-03T00:21:36.065Z,7.68
2023-01-03T00:24:04.540Z,7.67
2023-01-03T00:26:34.638Z,7.55
2023-01-03T00:29:03.096Z,7.56
2023-01-03T00:31:31.220Z,7.66
2023-01-03T00:33:59.285Z,7.66
2023-01-03T00:36:27.386Z,7.56
2023-01-03T00:38:55.257Z,7.62
2023-01-03T00:41:23.639Z,7.55
2023-01-03T00:43:53.038Z,7.51
2023-01-03T00:46:22.794Z,7.63
2023-01-03T00:48:51.498Z,7.59
2023-01-03T00:51:21.292Z,7.63
2023-01-03T00:53:51.768Z,7.57
2023-01-03T00:56:21.598Z,7.60
2023-01-03T00:58:49.854Z,7.56
2023-01-03T01:01:22.009Z,7.50
2023-01-03T01:03:53.124Z,7.60
2023-01-03T01:06:23.593Z,7.59
2023-01-03T01:08:53.010Z,7.58
2023-01-03T01:11:22.203Z,7.66
2023-01-03T01:13:51.004Z,7.53
2023-01-03T01:16:22.466Z,7.59
2023-01-03T01:18:53.739Z,7.53
2023-01-03T01:21:24.146Z,7.70
2023-01-03T01:23:52.896Z,7.59
2023-01-03T01:26:25.774Z,7.66
2023-01-03T01:28:55.944Z,7.65
2023-01-03T01:31:27.145Z,7.58
2023-01-03T01:33:57.176Z,7.50
2023-01-03T01:36:27.662Z,7.49
2023-01-03T01:38:58.005Z,7.55
2023-01-03T01:41:40.107Z,7.56
2023-01-03T01:44:40.750Z,7.56
2023-01-03T01:47:14.364Z,7.61
2023-01-03T01:49:43.936Z,7.54
2023-01-03T01:52:15.124Z,7.73
2023-01-03T01:54:43.983Z,7.65
2023-01-03T01:57:16.181Z,7.69
2023-01-03T01:59:44.881Z,7.66
2023-01-03T02:02:18.257Z,7.72
2023-01-03T02:04:49.287Z,7.73
2023-01-03T02:07:19.755Z,7.71
2023-01-03T02:09:50.074Z,7.81
2023-01-03T02:12:43.009Z,7.82
2023-01-03T02:15:22.321Z,7.86
2023-01-03T02:18:00.293Z,7.70
2023-01-03T02:20:54.216Z,7.73
2023-01-03T02:24:02.106Z,7.64
2023-01-03T02:26:51.508Z,7.77
2023-01-03T02:30:05.611Z,7.66
2023-01-03T02:32:44.476Z,7.62
2023-01-03T02:35:18.915Z,7.66
2023-01-03T02:37:56.249Z,7.70
2023-01-03T02:40:35.082Z,7.68
2023-01-03T02:43:09.710Z,7.63
2023-01-03T02:46:04.292Z,7.52
2023-01-03T02:48:42.993Z,7.65
2023-01-03T02:51:16.883Z,7.68
2023-01-03T02:53:47.974Z,7.48
2023-01-03T02:56:21.980Z,7.56
2023-01-03T02:58:55.802Z,7.45
2023-01-03T03:01:25.887Z,7.41
2023-01-03T03:03:55.862Z,7.32
2023-01-03T03:06:28.719Z,7.28
2023-01-03T03:08:56.843Z,7.09
2023-01-03T03:12:01.094Z,7.15
2023-01-03T03:14:36.275Z,7.11
2023-01-03T03:17:07.292Z,7.10
2023-01-03T03:19:55.798Z,7.01
2023-01-03T03:22:47.535Z,7.03
2023-01-03T03:25:20.344Z,6.90
2023-01-03T03:28:09.658Z,7.02
2023-01-03T03:30:40.800Z,6.95
2023-01-03T03:33:11.845Z,6.90
2023-01-03T03:35:46.960Z,6.93
2023-01-03T03:38:19.161Z,6.90
2023-01-03T03:41:12.859Z,6.96
2023-01-03T03:44:07.042Z,6.93
2023-01-03T03:46:47.724Z,6.82
2023-01-03T03:49:41.096Z,6.76
2023-01-03T03:52:15.903Z,6.83
2023-01-03T03:54:49.835Z,6.72
2023-01-03T03:57:25.282Z,6.71
2023-01-03T03:59:57.533Z,6.65
2023-01-03T04:02:27.647Z,6.53
2023-01-03T04:04:59.673Z,6.47
2023-01-03T04:07:28.979Z,6.42
2023-01-03T04:09:57.179Z,6.31
2023-01-03T04:12:25.307Z,6.31
2023-01-03T04:14:53.327Z,6.26
2023-01-03T04:17:21.537Z,6.33
2023-01-03T04:19:49.573Z,6.23
2023-01-03T04:22:17.719Z,6.35
2023-01-03T04:24:47.113Z,6.04
2023-01-03T04:27:15.246Z,6.13
2023-01-03T04:29:43.309Z,6.07
2023-01-03T04:32:11.388Z,5.95
2023-01-03T04:34:40.887Z,5.94
2023-01-03T04:37:08.954Z,5.80
2023-01-03T04:39:36.893Z,5.89
2023-01-03T04:42:26.793Z,5.78
2023-01-03T04:44:53.886Z,5.73
2023-01-03T04:47:22.156Z,5.80
2023-01-03T04:49:50.195Z,5.72
2023-01-03T04:52:18.573Z,5.67
2023-01-03T04:54:46.603Z,5.66
2023-01-03T04:57:16.458Z,5.63
2023-01-03T04:59:44.403Z,5.66
2023-01-03T05:02:12.519Z,5.68
2023-01-03T05:04:40.572Z,5.52
2023-01-03T05:07:08.700Z,5.64
2023-01-03T05:09:36.726Z,5.45
2023-01-03T05:12:05.051Z,5.47
2023-01-03T05:14:35.814Z,5.50
2023-01-03T05:17:04.110Z,5.54
2023-01-03T05:19:32.398Z,5.43
2023-01-03T05:22:14.497Z,5.38
2023-01-03T05:24:59.849Z,5.40
2023-01-03T05:27:28.217Z,5.36
2023-01-03T05:29:57.893Z,5.23
2023-01-03T05:32:25.939Z,5.41
2023-01-03T05:34:55.622Z,5.33
2023-01-03T05:37:25.076Z,5.46
2023-01-03T05:39:53.328Z,5.28
2023-01-03T05:42:21.471Z,5.33
2023-01-03T05:44:49.617Z,5.29
2023-01-03T05:47:19.277Z,5.37
2023-01-03T05:49:47.302Z,5.45
2023-01-03T05:52:15.292Z,5.50
2023-01-03T05:54:43.311Z,5.43
2023-01-03T05:57:11.347Z,5.28
2023-01-03T05:59:39.393Z,5.45
2023-01-03T06:02:07.543Z,5.51
2023-01-03T06:04:37.123Z,5.46
2023-01-03T06:07:05.203Z,5.44
2023-01-03T06:09:33.264Z,5.48
2023-01-03T06:12:01.188Z,5.33
2023-01-03T06:14:29.197Z,5.27
2023-01-03T06:17:14.616Z,5.29
2023-01-03T06:19:44.076Z,5.26
2023-01-03T06:22:12.115Z,5.32
2023-01-03T06:24:40.622Z,5.27
2023-01-03T06:27:08.735Z,5.26
2023-01-03T06:29:36.809Z,5.26
2023-01-03T06:32:09.243Z,5.29
2023-01-03T06:34:38.003Z,5.36
2023-01-03T06:37:07.645Z,5.33
2023-01-03T06:39:35.587Z,5.47
2023-01-03T06:42:24.277Z,5.54
2023-01-03T06:45:06.182Z,5.58
2023-01-03T06:47:56.720Z,5.52
2023-01-03T06:50:42.304Z,5.64
2023-01-03T06:53:15.044Z,5.76
2023-01-03T06:55:44.488Z,5.83
2023-01-03T06:58:13.632Z,5.90
2023-01-03T07:00:44.500Z,5.62
2023-01-03T07:03:13.169Z,5.72
2023-01-03T07:05:41.419Z,5.71
2023-01-03T07:08:09.511Z,5.76
2023-01-03T07:10:39.079Z,5.78
2023-01-03T07:13:24.386Z,5.71
2023-01-03T07:15:52.500Z,5.81
2023-01-03T07:18:20.632Z,5.85
2023-01-03T07:20:48.734Z,5.86
2023-01-03T07:23:16.723Z,5.80
2023-01-03T07:25:46.193Z,5.83
2023-01-03T07:28:15.516Z,5.88
2023-01-03T07:30:45.046Z,5.88
2023-01-03T07:33:14.991Z,5.97
2023-01-03T07:35:43.567Z,6.00
2023-01-03T07:38:12.952Z,5.96
2023-01-03T07:40:41.177Z,6.11
2023-01-03T07:43:35.067Z,6.12
2023-01-03T07:46:10.850Z,6.11
2023-01-03T07:48:39.512Z,6.18
2023-01-03T07:51:08.794Z,6.20
2023-01-03T07:53:40.612Z,6.09
2023-01-03T07:56:12.853Z,6.08
2023-01-03T07:58:45.023Z,6.20
2023-01-03T08:01:15.388Z,6.03
2023-01-03T08:03:43.995Z,6.11
2023-01-03T08:06:13.756Z,6.16
2023-01-03T08:08:42.732Z,6.23
2023-01-03T08:11:29.872Z,6.08
2023-01-03T08:13:59.625Z,6.15
2023-01-03T08:16:28.099Z,6.29
2023-01-03T08:18:56.164Z,6.22
2023-01-03T08:21:24.191Z,6.21
2023-01-03T08:23:52.123Z,6.21
2023-01-03T08:26:21.016Z,6.50
2023-01-03T08:28:49.193Z,6.56
2023-01-03T08:31:22.406Z,6.60
2023-01-03T08:33:52.817Z,6.49
2023-01-03T08:36:22.286Z,6.50
2023-01-03T08:38:56.874Z,6.46
2023-01-03T08:41:28.548Z,6.55
2023-01-03T08:43:57.218Z,6.59
2023-01-03T08:46:26.967Z,6.74
2023-01-03T08:48:56.020Z,6.60
2023-01-03T08:51:26.774Z,6.77
2023-01-03T08:53:54.874Z,6.80
2023-01-03T08:56:23.331Z,6.79
2023-01-03T08:58:51.528Z,6.90
2023-01-03T09:01:20.934Z,6.94
2023-01-03T09:03:51.186Z,7.04
2023-01-03T09:06:19.412Z,7.03
2023-01-03T09:08:47.641Z,6.97
2023-01-03T09:11:16.624Z,6.98
2023-01-03T09:13:44.739Z,7.13
2023-01-03T09:16:16.553Z,7.15
2023-01-03T09:18:44.973Z,7.23
2023-01-03T09:21:14.497Z,7.16
2023-01-03T09:23:42.698Z,7.17
2023-01-03T09:26:10.739Z,7.22
2023-01-03T09:28:38.874Z,7.31
2023-01-03T09:31:07.153Z,7.42
2023-01-03T09:33:35.231Z,7.36
2023-01-03T09:36:03.418Z,7.37
2023-01-03T09:38:33.051Z,7.55
2023-01-03T09:41:03.511Z,7.70
2023-01-03T09:43:41.094Z,7.73
2023-01-03T09:46:18.327Z,7.78
2023-01-03T09:48:47.303Z,7.71
2023-01-03T09:51:38.681Z,7.82
2023-01-03T09:54:30.106Z,7.82
2023-01-03T09:57:15.490Z,7.84
2023-01-03T10:00:00.868Z,7.84
2023-01-03T10:03:11.028Z,7.86
2023-01-03T10:05:52.737Z,8.01
2023-01-03T10:08:33.342Z,8.40
2023-01-03T10:11:07.707Z,8.01
2023-01-03T10:13:53.696Z,8.42
2023-01-03T10:16:35.776Z,8.21
2023-01-03T10:19:24.499Z,8.07
2023-01-03T10:22:02.649Z,8.18
2023-01-03T10:24:33.002Z,8.27
2023-01-03T10:27:14.809Z,8.34
2023-01-03T10:29:44.116Z,8.52
2023-01-03T10:32:38.982Z,8.55
2023-01-03T10:35:19.127Z,8.71
2023-01-03T10:37:47.994Z,8.64
2023-01-03T10:40:16.187Z,8.78
2023-01-03T10:42:46.930Z,8.78
2023-01-03T10:45:17.042Z,8.68
2023-01-03T10:47:45.312Z,8.60
2023-01-03T10:50:22.294Z,8.73
2023-01-03T10:52:58.351Z,8.64
2023-01-03T10:55:27.331Z,8.57
2023-01-03T10:58:02.232Z,8.60
2023-01-03T11:00:33.655Z,8.59
2023-01-03T11:03:17.402Z,8.64
2023-01-03T11:05:47.996Z,8.68
2023-01-03T11:08:19.897Z,8.53
2023-01-03T11:10:54.942Z,8.60
2023-01-03T11:13:31.772Z,8.60
2023-01-03T11:16:01.532Z,8.71
2023-01-03T11:18:31.252Z,8.77
2023-01-03T11:21:14.096Z,8.73
2023-01-03T11:24:04.447Z,8.57
2023-01-03T11:26:43.994Z,8.60
2023-01-03T11:29:36.836Z,8.63
2023-01-03T11:32:18.789Z,8.50
2023-01-03T11:35:23.448Z,8.74
2023-01-03T11:38:05.524Z,8.67
2023-01-03T11:40:45.435Z,8.74
2023-01-03T11:43:38.883Z,8.77
2023-01-03T11:46:26.305Z,8.69
2023-01-03T11:49:16.584Z,8.75
2023-01-03T11:51:53.861Z,8.85
2023-01-03T11:54:41.648Z,9.18
2023-01-03T11:57:20.854Z,8.91
2023-01-03T12:00:03.814Z,8.98
2023-01-03T12:03:03.370Z,9.08
2023-01-03T12:05:47.391Z,9.20
2023-01-03T12:08:42.608Z,9.40
2023-01-03T12:11:22.391Z,9.48
2023-01-03T12:14:02.693Z,9.32
2023-01-03T12:16:34.383Z,9.48
2023-01-03T12:19:12.520Z,9.60
2023-01-03T12:21:45.921Z,9.46
2023-01-03T12:24:19.320Z,9.48
2023-01-03T12:26:55.465Z,9.45
2023-01-03T12:29:29.262Z,9.69
2023-01-03T12:32:04.555Z,9.60
2023-01-03T12:34:44.573Z,9.65
2023-01-03T12:37:17.429Z,9.47
2023-01-03T12:39:55.425Z,9.51
2023-01-03T12:42:35.031Z,9.55
2023-01-03T12:45:24.248Z,9.61
2023-01-03T12:47:57.737Z,9.66
2023-01-03T12:50:31.931Z,9.66
2023-01-03T12:53:04.911Z,9.68
2023-01-03T12:55:49.457Z,9.72
2023-01-03T12:58:39.362Z,9.94
2023-01-03T13:01:14.256Z,10.13
2023-01-03T13:03:47.182Z,10.22
2023-01-03T13:06:21.581Z,10.26
2023-01-03T13:08:54.322Z,10.30
2023-01-03T13:11:26.850Z,10.22
2023-01-03T13:13:57.747Z,10.17
2023-01-03T13:16:41.764Z,10.12
2023-01-03T13:19:55.495Z,10.19
2023-01-03T13:22:36.981Z,10.21
2023-01-03T13:25:35.024Z,10.16
2023-01-03T13:28:21.446Z,10.25
2023-01-03T13:30:49.931Z,10.30
2023-01-03T13:33:20.738Z,10.14
2023-01-03T13:36:01.204Z,10.21
2023-01-03T13:38:35.930Z,10.13
2023-01-03T13:41:18.139Z,9.99
2023-01-03T13:43:51.226Z,10.03
2023-01-03T13:46:23.455Z,10.00
2023-01-03T13:48:58.689Z,9.86
2023-01-03T13:51:47.077Z,9.86
2023-01-03T13:54:57.206Z,9.88
2023-01-03T13:57:37.543Z,10.03
2023-01-03T14:00:17.805Z,9.78
2023-01-03T14:03:20.321Z,9.74
2023-01-03T14:06:24.262Z,9.94
2023-01-03T14:09:30.457Z,9.92
2023-01-03T14:12:28.966Z,9.65
2023-01-03T14:14:59.031Z,9.77
2023-01-03T14:17:31.792Z,9.71
2023-01-03T14:20:04.426Z,9.70
2023-01-03T14:22:38.312Z,9.70
2023-01-03T14:25:07.823Z,9.78
2023-01-03T14:27:40.608Z,9.68
2023-01-03T14:30:22.058Z,9.73
2023-01-03T14:32:50.421Z,9.73
2023-01-03T14:35:37.362Z,9.74
2023-01-03T14:38:07.463Z,9.73
2023-01-03T14:40:35.904Z,9.50
2023-01-03T14:43:06.605Z,9.56
2023-01-03T14:45:34.991Z,9.57
2023-01-03T14:48:03.147Z,9.60
2023-01-03T14:50:33.538Z,9.39
2023-01-03T14:53:03.584Z,9.53
2023-01-03T14:55:33.937Z,9.56
2023-01-03T14:58:06.107Z,9.40
2023-01-03T15:00:37.459Z,9.54
2023-01-03T15:03:05.916Z,9.56
2023-01-03T15:05:35.557Z,9.49
2023-01-03T15:08:22.404Z,9.51
2023-01-03T15:10:54.244Z,9.50
2023-01-03T15:13:25.949Z,9.52
2023-01-03T15:15:57.595Z,9.32
2023-01-03T15:18:28.551Z,9.27
2023-01-03T15:21:00.347Z,9.30
2023-01-03T15:23:41.683Z,9.36
2023-01-03T15:26:22.736Z,9.10
2023-01-03T15:28:53.533Z,9.07
2023-01-03T15:31:37.180Z,9.05
2023-01-03T15:34:15.274Z,9.11
2023-01-03T15:36:47.178Z,9.12
2023-01-03T15:39:19.859Z,9.04
2023-01-03T15:42:42.286Z,8.81
2023-01-03T15:44:55.147Z,8.70
2023-01-03T15:47:27.234Z,8.69
2023-01-03T15:49:59.709Z,8.66
2023-01-03T15:52:28.258Z,8.51
2023-01-03T15:54:56.507Z,8.36
2023-01-03T15:57:29.808Z,8.40
2023-01-03T16:00:01.204Z,8.35
2023-01-03T16:02:31.964Z,8.37
2023-01-03T16:05:00.138Z,8.33
2023-01-03T16:07:28.163Z,8.25
2023-01-03T16:09:56.035Z,8.31
2023-01-03T16:12:31.637Z,8.12
2023-01-03T16:14:59.973Z,8.08
2023-01-03T16:17:30.810Z,8.34
2023-01-03T16:20:00.406Z,8.22
2023-01-03T16:22:35.133Z,8.22
2023-01-03T16:25:04.298Z,8.19
2023-01-03T16:27:32.335Z,8.23
2023-01-03T16:30:00.252Z,8.28
2023-01-03T16:32:31.195Z,8.24
2023-01-03T16:35:02.397Z,8.04
2023-01-03T16:37:30.454Z,8.27
2023-01-03T16:39:59.482Z,8.12
2023-01-03T16:42:28.571Z,8.14
2023-01-03T16:44:57.898Z,8.09
2023-01-03T16:47:33.589Z,7.99
2023-01-03T16:50:06.144Z,8.14
2023-01-03T16:52:35.847Z,8.06
2023-01-03T16:55:07.041Z,7.88
2023-01-03T16:57:35.131Z,7.85
2023-01-03T17:00:03.611Z,7.80
2023-01-03T17:02:33.660Z,7.89
2023-01-03T17:05:02.665Z,7.89
2023-01-03T17:07:30.848Z,7.97
2023-01-03T17:09:58.885Z,7.90
2023-01-03T17:12:27.538Z,7.93
2023-01-03T17:14:57.190Z,7.92
2023-01-03T17:17:25.748Z,7.77
2023-01-03T17:20:04.954Z,7.76
2023-01-03T17:22:33.899Z,7.76
2023-01-03T17:25:02.144Z,7.85
2023-01-03T17:27:32.888Z,7.99
2023-01-03T17:30:06.219Z,8.00
2023-01-03T17:32:34.279Z,8.03
2023-01-03T17:35:05.178Z,8.02
2023-01-03T17:37:45.689Z,8.02
2023-01-03T17:40:27.697Z,7.90
2023-01-03T17:43:00.418Z,8.07
2023-01-03T17:45:45.703Z,7.93
2023-01-03T17:48:31.724Z,7.94
2023-01-03T17:51:02.174Z,7.90
2023-01-03T17:53:30.719Z,7.97
2023-01-03T17:55:58.767Z,8.09
2023-01-03T17:58:32.686Z,7.92
2023-01-03T18:01:00.923Z,8.09
2023-01-03T18:03:30.533Z,8.08
2023-01-03T18:06:02.846Z,8.08
2023-01-03T18:08:30.861Z,8.04
2023-01-03T18:10:58.931Z,8.11
2023-01-03T18:13:29.809Z,8.13
2023-01-03T18:15:58.673Z,8.15
2023-01-03T18:18:27.785Z,8.13
2023-01-03T18:20:57.081Z,8.16
2023-01-03T18:23:31.103Z,8.14
2023-01-03T18:26:03.701Z,8.11
2023-01-03T18:28:31.648Z,8.11
2023-01-03T18:30:59.776Z,8.06
2023-01-03T18:33:28.190Z,8.13
2023-01-03T18:35:56.367Z,8.12
2023-01-03T18:38:29.336Z,7.99
2023-01-03T18:41:04.289Z,7.93
2023-01-03T18:43:33.556Z,7.93
2023-01-03T18:46:01.653Z,7.99
2023-01-03T18:48:29.880Z,7.90
2023-01-03T18:50:59.742Z,8.66
2023-01-03T18:53:32.322Z,8.41
2023-01-03T18:56:00.932Z,8.09
2023-01-03T18:58:33.172Z,8.02
2023-01-03T19:01:01.758Z,7.88
2023-01-03T19:03:32.496Z,7.84
2023-01-03T19:06:02.101Z,7.79
2023-01-03T19:08:34.462Z,7.90
2023-01-03T19:11:06.719Z,7.77
2023-01-03T19:13:51.070Z,7.82
2023-01-03T19:16:21.453Z,7.92
2023-01-03T19:18:50.271Z,7.94
2023-01-03T19:21:19.975Z,7.80
2023-01-03T19:23:57.612Z,7.84
2023-01-03T19:26:29.714Z,7.81
2023-01-03T19:29:01.215Z,7.79
2023-01-03T19:31:32.033Z,7.70
2023-01-03T19:34:00.091Z,7.66
2023-01-03T19:36:28.227Z,7.72
2023-01-03T19:38:57.675Z,7.82
2023-01-03T19:41:25.791Z,7.70
2023-01-03T19:43:53.884Z,7.67
2023-01-03T19:46:22.112Z,7.69
2023-01-03T19:48:50.043Z,7.65
2023-01-03T19:51:18.099Z,7.72
2023-01-03T19:53:46.041Z,7.76
2023-01-03T19:56:23.957Z,7.78
2023-01-03T19:58:54.470Z,7.78
2023-01-03T20:01:26.091Z,7.72
2023-01-03T20:03:54.682Z,7.87
2023-01-03T20:06:22.883Z,7.85
2023-01-03T20:08:50.982Z,7.79
2023-01-03T20:11:22.999Z,7.70
2023-01-03T20:13:51.053Z,7.75
2023-01-03T20:16:19.200Z,7.72
2023-01-03T20:18:48.185Z,7.72
2023-01-03T20:21:22.958Z,7.81
2023-01-03T20:23:54.001Z,7.64
2023-01-03T20:26:26.534Z,7.62
2023-01-03T20:28:57.046Z,7.43
2023-01-03T20:31:26.337Z,7.45
2023-01-03T20:33:54.903Z,7.60
2023-01-03T20:36:26.147Z,7.40
2023-01-03T20:38:57.193Z,7.39
2023-01-03T20:41:36.770Z,7.40
2023-01-03T20:44:07.582Z,7.29
2023-01-03T20:46:39.265Z,7.37
2023-01-03T20:49:15.452Z,7.65
2023-01-03T20:51:43.807Z,7.45
2023-01-03T20:54:12.076Z,7.37
2023-01-03T20:56:41.582Z,7.53
2023-01-03T20:59:15.505Z,7.42
2023-01-03T21:01:43.735Z,7.33
2023-01-03T21:04:12.872Z,7.29
2023-01-03T21:06:44.317Z,7.40
2023-01-03T21:09:14.624Z,7.27
2023-01-03T21:11:44.611Z,7.40
2023-01-03T21:14:14.568Z,7.26
2023-01-03T21:16:46.645Z,7.34
2023-01-03T21:19:17.429Z,7.38
2023-01-03T21:21:46.780Z,7.10
2023-01-03T21:24:17.293Z,7.19
2023-01-03T21:26:46.887Z,7.20
2023-01-03T21:29:15.302Z,7.12
2023-01-03T21:31:44.576Z,7.21
2023-01-03T21:34:18.050Z,7.27
2023-01-03T21:36:46.143Z,7.26
2023-01-03T21:39:14.625Z,7.32
2023-01-03T21:41:56.573Z,7.08
2023-01-03T21:44:25.991Z,7.11
2023-01-03T21:46:54.090Z,7.16
2023-01-03T21:49:22.124Z,7.10
2023-01-03T21:51:50.071Z,7.17
2023-01-03T21:54:18.389Z,7.00
2023-01-03T21:56:47.124Z,7.18
2023-01-03T21:59:16.308Z,7.13
2023-01-03T22:02:05.037Z,7.07
2023-01-03T22:04:34.031Z,7.06
2023-01-03T22:07:02.457Z,7.10
2023-01-03T22:09:49.465Z,7.15
2023-01-03T22:12:17.716Z,7.07
2023-01-03T22:14:46.209Z,7.08
2023-01-03T22:17:16.838Z,7.06
2023-01-03T22:19:44.791Z,7.17
2023-01-03T22:22:13.075Z,7.21
2023-01-03T22:24:41.113Z,7.20
2023-01-03T22:27:09.225Z,7.20
2023-01-03T22:29:37.364Z,7.31
2023-01-03T22:32:06.107Z,7.22
2023-01-03T22:34:36.135Z,7.20
2023-01-03T22:37:04.194Z,7.21
2023-01-03T22:39:32.315Z,7.20
2023-01-03T22:42:00.505Z,7.23
2023-01-03T22:44:28.588Z,7.27
2023-01-03T22:46:56.798Z,7.21
2023-01-03T22:49:24.933Z,7.33
2023-01-03T22:51:54.504Z,7.38
2023-01-03T22:54:22.680Z,7.36
2023-01-03T22:56:50.656Z,7.36
2023-01-03T22:59:18.649Z,7.35
2023-01-03T23:01:46.898Z,7.46
2023-01-03T23:04:15.041Z,7.40
2023-01-03T23:06:43.064Z,7.34
2023-01-03T23:09:13.918Z,7.44
2023-01-03T23:11:59.547Z,7.44
2023-01-03T23:14:28.127Z,7.33
2023-01-03T23:16:56.376Z,7.43
2023-01-03T23:19:26.061Z,7.40
2023-01-03T23:21:54.587Z,7.43
2023-01-03T23:24:25.469Z,7.45
2023-01-03T23:26:54.333Z,7.51
2023-01-03T23:29:22.513Z,7.52
2023-01-03T23:31:50.856Z,7.57
2023-01-03T23:34:21.509Z,7.50
2023-01-03T23:36:50.774Z,7.51
2023-01-03T23:39:22.093Z,7.55
2023-01-03T23:41:52.571Z,7.54
2023-01-03T23:44:21.430Z,7.54
2023-01-03T23:46:50.275Z,7.50
2023-01-03T23:49:19.347Z,7.63
2023-01-03T23:51:48.341Z,7.56
2023-01-03T23:54:18.273Z,7.66
2023-01-03T23:56:47.033Z,7.67
2023-01-03T23:59:17.588Z,7.79
